Time;durP1;ratioP1;P1;durP2;ratioP2;P2;SDS_P1;SDS_P2;PMS_P1;PMS_P2;Temp;Humidity;BMP_temperature;BMP_pressure;BME280_temperature;BME280_humidity;BME280_pressure;Samples;Min_cycle;Max_cycle;Signal;HPM_P1;HPM_P2
2022/12/01 00:00:45;;;;;;;51.40;20.88;;;;;;;11.55;100.00;102590.19;4984191;28;20080;-55
2022/12/01 00:03:10;;;;;;;50.93;22.03;;;;;;;11.57;100.00;102584.66;4988282;28;20038;-55
2022/12/01 00:05:36;;;;;;;55.58;21.98;;;;;;;11.57;100.00;102585.50;4985167;28;20030;-56
2022/12/01 00:08:01;;;;;;;53.53;22.93;;;;;;;11.64;100.00;102593.72;4993414;28;20083;-56
2022/12/01 00:10:27;;;;;;;51.85;21.67;;;;;;;11.73;100.00;102597.28;4991056;28;20038;-54
2022/12/01 00:12:58;;;;;;;49.20;21.90;;;;;;;11.59;100.00;102594.22;4983886;28;20070;-57
2022/12/01 00:15:26;;;;;;;55.30;22.53;;;;;;;11.56;100.00;102599.91;4984291;28;20035;-56
2022/12/01 00:17:52;;;;;;;49.10;21.02;;;;;;;11.56;100.00;102602.59;4985151;28;20276;-57
2022/12/01 00:20:18;;;;;;;52.87;21.07;;;;;;;11.60;100.00;102598.59;4988103;28;20107;-58
2022/12/01 00:22:45;;;;;;;52.83;20.83;;;;;;;11.56;100.00;102591.88;4990559;28;20027;-53
2022/12/01 00:25:12;;;;;;;50.33;20.65;;;;;;;11.35;100.00;102588.72;4969114;28;20065;-55
2022/12/01 00:27:39;;;;;;;54.38;21.45;;;;;;;11.50;100.00;102591.66;4990802;28;20035;-57
2022/12/01 00:30:07;;;;;;;53.60;21.77;;;;;;;11.46;100.00;102596.47;4992851;28;20038;-58
2022/12/01 00:32:33;;;;;;;54.47;21.73;;;;;;;11.49;100.00;102585.44;4988290;28;20027;-58
2022/12/01 00:34:58;;;;;;;49.20;21.70;;;;;;;11.55;100.00;102584.84;4983170;28;20295;-57
2022/12/01 00:37:24;;;;;;;52.43;21.20;;;;;;;11.35;100.00;102578.84;4985856;28;20030;-55
2022/12/01 00:39:50;;;;;;;51.05;20.70;;;;;;;11.22;100.00;102573.06;4985544;28;20114;-55
2022/12/01 00:42:15;;;;;;;43.78;19.45;;;;;;;11.37;100.00;102578.69;4992995;28;20054;-56
2022/12/01 00:44:41;;;;;;;50.40;19.60;;;;;;;11.42;100.00;102577.22;4987893;28;20070;-56
2022/12/01 00:47:06;;;;;;;50.30;19.90;;;;;;;11.38;100.00;102581.19;4990685;28;20051;-58
2022/12/01 00:49:32;;;;;;;46.40;18.03;;;;;;;11.29;100.00;102572.25;4987869;28;20061;-54
2022/12/01 00:51:58;;;;;;;52.10;18.80;;;;;;;11.57;100.00;102574.78;4985229;28;20028;-55
2022/12/01 00:54:23;;;;;;;52.38;20.92;;;;;;;11.61;100.00;102569.94;4983427;28;20161;-56
2022/12/01 00:56:49;;;;;;;54.90;20.50;;;;;;;11.55;100.00;102579.47;4989784;28;20069;-56
2022/12/01 00:59:15;;;;;;;56.60;20.73;;;;;;;11.57;100.00;102579.28;4985716;28;20065;-57
2022/12/01 01:01:40;;;;;;;49.30;20.80;;;;;;;11.61;100.00;102577.97;4983404;28;20032;-58
2022/12/01 01:04:06;;;;;;;57.60;23.10;;;;;;;11.49;100.00;102580.09;4988129;28;20287;-55
2022/12/01 01:06:31;;;;;;;50.83;22.50;;;;;;;11.57;100.00;102580.16;4992333;28;20066;-56
2022/12/01 01:08:57;;;;;;;52.97;20.43;;;;;;;11.57;100.00;102584.66;4982897;28;20061;-55
2022/12/01 01:11:24;;;;;;;52.17;21.80;;;;;;;11.41;100.00;102583.56;4985194;28;20031;-57
2022/12/01 01:13:50;;;;;;;51.80;22.00;;;;;;;11.28;100.00;102588.50;4983674;28;20057;-58
2022/12/01 01:16:20;;;;;;;52.67;21.05;;;;;;;11.28;100.00;102589.31;4986310;28;20039;-54
2022/12/01 01:18:46;;;;;;;47.83;21.33;;;;;;;11.39;100.00;102598.13;4990385;28;20042;-57
2022/12/01 01:21:14;;;;;;;54.55;23.00;;;;;;;11.40;100.00;102594.44;4980806;28;20046;-56
2022/12/01 01:23:40;;;;;;;47.47;19.73;;;;;;;11.47;100.00;102592.81;4991851;28;20035;-56
2022/12/01 01:26:10;;;;;;;51.47;20.60;;;;;;;11.37;100.00;102600.94;4988977;28;20282;-57
2022/12/01 01:28:36;;;;;;;50.50;20.57;;;;;;;11.40;100.00;102602.47;4991193;28;20042;-58
2022/12/01 01:31:09;;;;;;;46.37;19.47;;;;;;;11.47;100.00;102592.81;4989525;28;20280;-56
2022/12/01 01:33:35;;;;;;;43.93;19.07;;;;;;;11.38;100.00;102604.47;4990418;28;20094;-58
2022/12/01 01:36:01;;;;;;;52.40;18.67;;;;;;;11.51;100.00;102604.06;4988670;28;20273;-55
2022/12/01 01:38:28;;;;;;;45.80;18.70;;;;;;;11.55;100.00;102610.78;4990689;28;20054;-57
2022/12/01 01:40:54;;;;;;;48.55;18.55;;;;;;;11.53;100.00;102613.59;4990049;28;20277;-54
2022/12/01 01:43:46;;;;;;;44.27;18.60;;;;;;;11.55;100.00;102611.63;4990463;28;20043;-54
2022/12/01 01:46:26;;;;;;;49.30;20.97;;;;;;;11.58;100.00;102610.44;4985419;28;20269;-58
2022/12/01 01:48:59;;;;;;;42.88;19.38;;;;;;;11.57;100.00;102604.25;4986801;28;20304;-57
2022/12/01 01:51:29;;;;;;;54.00;22.07;;;;;;;11.54;100.00;102609.94;4991472;28;20047;-55
2022/12/01 01:54:01;;;;;;;46.10;19.47;;;;;;;11.61;100.00;102612.81;4989885;28;20279;-52
2022/12/01 01:56:27;;;;;;;47.47;19.67;;;;;;;11.62;100.00;102607.31;4989784;28;20346;-57
2022/12/01 01:58:52;;;;;;;46.28;21.30;;;;;;;11.60;100.00;102614.66;4985832;28;20035;-53
2022/12/01 02:01:18;;;;;;;48.05;22.35;;;;;;;11.75;100.00;102614.06;4983984;28;20035;-55
2022/12/01 02:03:44;;;;;;;52.97;21.30;;;;;;;11.69;100.00;102614.69;4989026;28;20035;-57
2022/12/01 02:06:10;;;;;;;49.15;21.42;;;;;;;11.82;100.00;102619.63;4987997;28;20273;-59
2022/12/01 02:08:37;;;;;;;48.23;20.90;;;;;;;11.77;100.00;102615.59;4987859;28;20057;-56
2022/12/01 02:11:14;;;;;;;47.72;21.48;;;;;;;11.76;100.00;102619.28;4985709;28;20046;-53
2022/12/01 02:14:02;;;;;;;49.97;21.05;;;;;;;11.72;100.00;102612.56;4984641;28;20043;-56
2022/12/01 02:16:46;;;;;;;;;;;;;;;11.66;100.00;102612.34;4988869;28;20037;-54
2022/12/01 02:19:49;;;;;;;42.22;18.98;;;;;;;11.66;100.00;102606.97;4988011;28;19914;-58
2022/12/01 02:22:20;;;;;;;45.30;19.33;;;;;;;11.70;100.00;102602.97;4985928;28;20103;-57
2022/12/01 02:25:40;;;;;;;46.08;20.02;;;;;;;11.51;100.00;102607.56;4988677;28;20098;-57
2022/12/01 02:28:23;;;;;;;43.93;20.67;;;;;;;11.60;100.00;102603.09;4934118;28;20056;-55
2022/12/01 02:30:57;;;;;;;45.20;20.75;;;;;;;11.62;100.00;102601.09;4988803;28;20046;-58
2022/12/01 02:33:48;;;;;;;47.63;20.87;;;;;;;11.53;100.00;102602.88;4989255;28;20039;-59
2022/12/01 02:36:27;;;;;;;51.95;23.02;;;;;;;11.46;100.00;102604.50;4988456;28;20269;-57
2022/12/01 02:39:16;;;;;;;51.97;21.47;;;;;;;11.51;100.00;102598.69;4991306;28;20027;-57
2022/12/01 02:41:50;;;;;;;54.05;24.30;;;;;;;11.55;100.00;102600.91;4989313;28;20281;-56
2022/12/01 02:44:21;;;;;;;53.60;22.67;;;;;;;11.53;100.00;102602.06;4998903;28;20046;-56
2022/12/01 02:46:53;;;;;;;51.78;22.23;;;;;;;11.38;100.00;102597.25;4990863;28;20035;-55
2022/12/01 02:49:25;;;;;;;50.45;23.35;;;;;;;11.48;100.00;102594.47;4987458;28;20035;-54
2022/12/01 02:51:54;;;;;;;47.03;21.38;;;;;;;11.55;100.00;102605.41;4991066;28;20027;-54
2022/12/01 02:54:21;;;;;;;49.77;23.53;;;;;;;11.53;100.00;102602.88;4989088;28;20034;-58
2022/12/01 02:56:50;;;;;;;;;;;;;;;11.49;100.00;102601.53;4989126;28;20371;-58
2022/12/01 02:59:15;;;;;;;54.53;22.38;;;;;;;11.57;100.00;102604.25;4987473;28;19914;-56
2022/12/01 03:02:05;;;;;;;55.60;24.13;;;;;;;11.46;100.00;102601.84;4987278;28;20035;-55
2022/12/01 03:05:03;;;;;;;55.65;22.42;;;;;;;11.44;100.00;102604.69;4988639;28;20055;-56
2022/12/01 03:07:48;;;;;;;50.05;21.08;;;;;;;11.37;100.00;102608.16;4987622;28;20018;-58
2022/12/01 03:10:47;;;;;;;56.78;22.63;;;;;;;11.43;100.00;102604.84;4988221;28;20035;-58
2022/12/01 03:13:24;;;;;;;51.10;22.92;;;;;;;11.35;100.00;102599.44;4990054;28;20031;-56
2022/12/01 03:16:10;;;;;;;48.47;21.70;;;;;;;11.10;100.00;102607.28;4989509;28;20047;-56
2022/12/01 03:18:42;;;;;;;58.30;24.10;;;;;;;11.12;100.00;102607.97;4998540;28;20285;-58
2022/12/01 03:21:30;;;;;;;50.67;20.85;;;;;;;11.31;100.00;102609.63;4987299;28;20065;-56
2022/12/01 03:24:02;;;;;;;51.40;23.10;;;;;;;11.25;100.00;102603.03;4985188;28;20045;-56
2022/12/01 03:26:31;;;;;;;53.80;22.25;;;;;;;11.22;100.00;102600.69;4984791;28;20031;-57
2022/12/01 03:29:08;;;;;;;53.27;22.30;;;;;;;11.14;100.00;102593.41;4986050;28;20039;-57
2022/12/01 03:31:41;;;;;;;57.90;23.05;;;;;;;10.99;100.00;102600.34;4988997;28;20333;-57
2022/12/01 03:34:15;;;;;;;56.92;22.77;;;;;;;11.05;100.00;102597.03;4991032;28;20062;-59
2022/12/01 03:36:46;;;;;;;53.13;22.95;;;;;;;11.01;100.00;102601.03;4998762;28;20039;-59
2022/12/01 03:39:16;;;;;;;55.20;23.45;;;;;;;11.19;100.00;102611.72;4989175;28;20056;-57
2022/12/01 03:41:49;;;;;;;53.65;22.42;;;;;;;11.22;100.00;102603.34;4985010;28;20054;-57
2022/12/01 03:44:20;;;;;;;52.15;22.60;;;;;;;11.14;100.00;102606.81;4992257;28;20034;-56
2022/12/01 03:46:46;;;;;;;54.67;23.83;;;;;;;11.13;100.00;102606.97;4988695;28;20058;-57
2022/12/01 03:49:13;;;;;;;55.73;22.57;;;;;;;11.20;100.00;102613.38;4992943;28;20043;-56
2022/12/01 03:51:56;;;;;;;55.65;22.92;;;;;;;11.16;100.00;102620.88;4990535;28;20030;-58
2022/12/01 03:54:28;;;;;;;60.42;23.33;;;;;;;11.25;100.00;102610.25;4985536;28;20098;-57
2022/12/01 03:57:02;;;;;;;56.35;23.27;;;;;;;11.17;100.00;102611.84;4988397;28;20054;-58
2022/12/01 03:59:29;;;;;;;60.58;23.55;;;;;;;11.28;100.00;102616.13;4993742;28;20060;-58
2022/12/01 04:01:56;;;;;;;61.03;24.63;;;;;;;11.15;100.00;102613.84;4990196;28;20039;-58
2022/12/01 04:04:22;;;;;;;54.90;23.48;;;;;;;11.22;100.00;102615.91;4993848;28;20038;-59
2022/12/01 04:06:49;;;;;;;57.90;23.30;;;;;;;11.21;100.00;102617.75;4989104;28;20030;-59
2022/12/01 04:09:15;;;;;;;60.60;23.98;;;;;;;11.35;100.00;102613.66;4989836;28;20039;-56
2022/12/01 04:14:25;;;;;;;62.22;24.42;;;;;;;11.48;100.00;102615.91;4991697;28;20043;-57
2022/12/01 04:16:51;;;;;;;54.38;21.90;;;;;;;11.45;100.00;102616.22;4988553;28;20035;-57
2022/12/01 04:19:17;;;;;;;58.07;24.13;;;;;;;11.37;100.00;102622.38;4991645;28;20122;-57
2022/12/01 04:21:43;;;;;;;56.97;22.70;;;;;;;11.37;100.00;102619.69;4992681;28;20035;-57
2022/12/01 04:24:08;;;;;;;62.45;24.77;;;;;;;11.23;100.00;102621.09;4987798;28;20042;-53
2022/12/01 04:26:36;;;;;;;58.63;22.47;;;;;;;11.15;100.00;102621.06;4982136;28;20106;-52
2022/12/01 04:29:04;;;;;;;59.17;24.33;;;;;;;10.98;100.00;102622.75;4993339;28;20038;-50
2022/12/01 04:31:30;;;;;;;59.73;22.73;;;;;;;11.11;100.00;102614.31;4993057;28;20093;-57
2022/12/01 04:33:57;;;;;;;58.40;22.77;;;;;;;11.14;100.00;102620.19;4989987;28;20280;-55
2022/12/01 04:36:24;;;;;;;57.05;23.35;;;;;;;11.20;100.00;102608.03;4992128;28;20035;-57
2022/12/01 04:38:49;;;;;;;;;;;;;;;11.22;100.00;102616.75;4987817;28;20050;-51
2022/12/01 04:41:15;;;;;;;58.60;22.83;;;;;;;11.17;100.00;102611.03;4992812;28;19918;-58
2022/12/01 04:43:41;;;;;;;58.40;24.10;;;;;;;11.20;100.00;102618.75;4990562;28;20035;-58
2022/12/01 04:46:07;;;;;;;57.90;23.50;;;;;;;11.27;100.00;102619.78;4988906;28;20279;-55
2022/12/01 04:48:37;;;;;;;59.15;24.88;;;;;;;11.31;100.00;102617.66;4990024;28;20050;-58
2022/12/01 04:51:04;;;;;;;63.33;23.97;;;;;;;11.45;100.00;102613.56;4988498;28;20125;-57
2022/12/01 04:53:30;;;;;;;58.17;23.25;;;;;;;11.37;100.00;102613.50;4986320;28;20271;-58
2022/12/01 04:55:56;;;;;;;61.00;23.65;;;;;;;11.68;100.00;102616.56;4992158;28;20039;-54
2022/12/01 04:58:21;;;;;;;60.60;23.40;;;;;;;11.14;100.00;102619.38;4988191;28;20034;-54
2022/12/01 05:00:47;;;;;;;65.28;23.55;;;;;;;11.05;100.00;102608.56;4988434;28;20032;-57
2022/12/01 05:03:13;;;;;;;52.05;22.48;;;;;;;11.04;100.00;102604.22;4986665;28;20039;-58
2022/12/01 05:05:38;;;;;;;56.33;24.33;;;;;;;11.09;100.00;102610.97;4992015;28;20042;-58
2022/12/01 05:08:04;;;;;;;62.83;23.70;;;;;;;11.04;100.00;102614.94;4992777;28;20061;-57
2022/12/01 05:10:29;;;;;;;65.50;24.73;;;;;;;11.07;100.00;102612.94;4990941;28;20039;-55
2022/12/01 05:12:56;;;;;;;59.50;24.37;;;;;;;11.17;100.00;102613.69;4992783;28;20054;-55
2022/12/01 05:15:23;;;;;;;67.50;25.65;;;;;;;11.18;100.00;102626.09;4990805;28;20061;-57
2022/12/01 05:17:48;;;;;;;64.47;23.45;;;;;;;11.11;100.00;102615.16;4983888;28;20043;-56
2022/12/01 05:23:05;;;;;;;62.73;23.93;;;;;;;10.98;100.00;102617.41;4992342;28;20057;-58
2022/12/01 05:25:31;;;;;;;59.97;24.15;;;;;;;11.01;100.00;102615.25;4988025;28;20265;-57
2022/12/01 05:27:57;;;;;;;58.42;23.15;;;;;;;11.02;100.00;102616.91;4989852;28;20103;-56
2022/12/01 05:30:23;;;;;;;60.20;24.48;;;;;;;11.04;100.00;102619.47;4991448;28;20101;-57
2022/12/01 05:32:48;;;;;;;64.60;26.13;;;;;;;10.98;100.00;102620.09;4988784;28;20060;-61
2022/12/01 05:35:13;;;;;;;54.47;22.63;;;;;;;11.15;100.00;102623.72;4990313;28;20034;-59
2022/12/01 05:37:39;;;;;;;60.03;23.00;;;;;;;11.14;100.00;102624.72;4985310;28;20119;-58
2022/12/01 05:40:05;;;;;;;68.80;25.30;;;;;;;11.20;100.00;102624.09;4987933;28;20173;-58
2022/12/01 05:42:31;;;;;;;67.07;24.13;;;;;;;11.13;100.00;102623.03;4985933;28;20038;-58
2022/12/01 05:44:56;;;;;;;65.87;25.13;;;;;;;11.12;100.00;102624.03;4985662;28;20103;-56
2022/12/01 05:47:22;;;;;;;64.32;24.58;;;;;;;11.14;100.00;102622.88;4985845;28;20064;-57
2022/12/01 05:49:47;;;;;;;54.50;22.03;;;;;;;11.23;100.00;102628.31;4985708;28;20057;-56
2022/12/01 05:52:13;;;;;;;63.47;24.15;;;;;;;11.23;100.00;102623.78;4987721;28;20050;-58
2022/12/01 05:54:39;;;;;;;62.20;23.70;;;;;;;11.19;100.00;102617.06;4985462;28;20041;-58
2022/12/01 05:57:04;;;;;;;67.17;24.23;;;;;;;11.09;100.00;102622.50;4982698;28;20108;-57
2022/12/01 05:59:30;;;;;;;55.40;23.03;;;;;;;11.11;100.00;102620.50;4984034;28;20272;-56
2022/12/01 06:01:55;;;;;;;55.80;23.03;;;;;;;10.98;100.00;102620.91;4986270;28;20043;-58
2022/12/01 06:04:20;;;;;;;61.92;25.20;;;;;;;10.94;100.00;102624.91;4989059;28;20037;-57
2022/12/01 06:06:47;;;;;;;;;;;;;;;11.09;100.00;102627.84;4984118;28;20133;-57
2022/12/01 06:09:12;;;;;;;57.23;24.07;;;;;;;11.18;100.00;102626.91;4984382;28;19911;-57
2022/12/01 06:11:38;;;;;;;54.30;21.87;;;;;;;11.19;100.00;102633.13;4986638;28;20034;-57
2022/12/01 06:14:03;;;;;;;53.73;22.87;;;;;;;11.01;100.00;102633.16;4993410;28;20046;-59
2022/12/01 06:16:29;;;;;;;63.40;23.50;;;;;;;11.04;100.00;102628.31;4988722;28;20042;-59
2022/12/01 06:18:54;;;;;;;55.37;22.33;;;;;;;11.11;100.00;102635.75;4983605;28;20049;-57
2022/12/01 06:21:19;;;;;;;62.20;24.77;;;;;;;10.98;100.00;102639.66;4988534;28;20126;-56
2022/12/01 06:23:45;;;;;;;56.70;23.57;;;;;;;11.13;100.00;102645.28;4985138;28;20035;-58
2022/12/01 06:26:11;;;;;;;57.10;23.13;;;;;;;11.24;100.00;102638.84;4989544;28;20035;-58
2022/12/01 06:28:36;;;;;;;64.57;24.33;;;;;;;11.21;100.00;102641.84;4985676;28;20038;-56
2022/12/01 06:31:02;;;;;;;61.73;23.17;;;;;;;11.13;100.00;102644.47;4991436;28;20057;-56
2022/12/01 06:33:27;;;;;;;51.15;21.58;;;;;;;11.00;100.00;102642.19;4990425;28;20046;-55
2022/12/01 06:36:01;;;;;;;60.47;21.77;;;;;;;11.00;100.00;102643.00;4990475;28;20064;-56
2022/12/01 06:38:30;;;;;;;62.25;22.95;;;;;;;11.02;100.00;102637.50;4983737;28;20304;-56
2022/12/01 06:40:55;;;;;;;56.30;22.25;;;;;;;11.14;100.00;102646.16;4989270;28;20027;-56
2022/12/01 06:43:21;;;;;;;60.45;23.20;;;;;;;11.18;100.00;102636.81;4989841;28;20062;-58
2022/12/01 06:45:46;;;;;;;54.03;23.27;;;;;;;11.26;100.00;102644.88;4988908;28;20034;-58
2022/12/01 06:48:12;;;;;;;62.90;23.63;;;;;;;11.23;100.00;102644.38;4989702;28;20057;-58
2022/12/01 06:50:37;;;;;;;57.13;22.58;;;;;;;11.22;100.00;102634.66;4989362;28;20062;-57
2022/12/01 06:53:03;;;;;;;61.17;22.67;;;;;;;11.19;100.00;102641.16;4989456;28;20054;-58
2022/12/01 06:55:28;;;;;;;62.25;23.65;;;;;;;11.19;100.00;102644.69;4987132;28;20042;-56
2022/12/01 06:57:54;;;;;;;54.47;22.38;;;;;;;11.10;100.00;102645.59;4986269;28;20042;-54
2022/12/01 07:00:20;;;;;;;56.30;23.23;;;;;;;10.99;100.00;102638.66;4989949;28;20098;-53
2022/12/01 07:02:46;;;;;;;59.70;22.75;;;;;;;11.14;100.00;102643.47;4987762;28;20026;-55
2022/12/01 07:05:12;;;;;;;160.43;31.60;;;;;;;11.18;100.00;102647.50;4984505;28;20148;-54
2022/12/01 07:07:38;;;;;;;59.88;23.92;;;;;;;11.12;100.00;102643.63;4987804;28;20085;-54
2022/12/01 07:10:05;;;;;;;;;;;;;;;10.97;100.00;102643.31;4986142;28;21111;-56
2022/12/01 07:12:30;;;;;;;53.90;21.42;;;;;;;10.78;100.00;102659.53;4985846;28;19941;-55
2022/12/01 07:14:56;;;;;;;56.20;22.60;;;;;;;10.55;100.00;102658.16;4983700;28;20039;-58
2022/12/01 07:17:22;;;;;;;53.13;21.73;;;;;;;10.40;100.00;102665.84;4990832;28;20023;-57
2022/12/01 07:19:48;;;;;;;52.88;20.67;;;;;;;10.30;100.00;102657.84;4990747;28;20094;-57
2022/12/01 07:22:14;;;;;;;58.03;23.57;;;;;;;10.21;100.00;102660.56;4990567;28;20081;-57
2022/12/01 07:24:40;;;;;;;195.27;34.03;;;;;;;10.19;100.00;102666.88;4989392;28;20069;-58
2022/12/01 07:27:06;;;;;;;96.38;26.27;;;;;;;10.15;100.00;102673.53;4990219;28;20031;-56
2022/12/01 07:29:31;;;;;;;57.13;22.93;;;;;;;10.00;100.00;102672.31;4989955;28;20049;-57
2022/12/01 07:31:57;;;;;;;60.73;22.60;;;;;;;10.04;100.00;102671.03;4990458;28;20027;-56
2022/12/01 07:34:22;;;;;;;60.35;22.10;;;;;;;9.88;100.00;102675.16;4989270;28;20039;-56
2022/12/01 07:36:48;;;;;;;60.87;23.13;;;;;;;9.93;100.00;102679.25;4989772;28;20038;-56
2022/12/01 07:39:14;;;;;;;65.77;23.00;;;;;;;9.76;100.00;102673.66;4981331;28;20091;-56
2022/12/01 07:41:39;;;;;;;66.57;24.10;;;;;;;9.96;100.00;102673.59;4981257;28;20057;-57
2022/12/01 07:44:05;;;;;;;70.03;24.57;;;;;;;9.89;100.00;102676.84;4985530;28;20296;-55
2022/12/01 07:46:31;;;;;;;66.95;22.85;;;;;;;9.90;100.00;102681.19;4989640;28;20030;-57
2022/12/01 07:48:58;;;;;;;62.77;23.73;;;;;;;10.00;100.00;102681.16;4985610;28;20103;-57
2022/12/01 07:51:24;;;;;;;64.68;22.58;;;;;;;10.10;100.00;102681.13;4992570;28;20049;-58
2022/12/01 07:53:50;;;;;;;62.70;22.27;;;;;;;10.02;100.00;102689.88;4992987;28;20098;-56
2022/12/01 07:56:18;;;;;;;65.60;24.83;;;;;;;10.05;100.00;102680.72;4989244;28;20050;-58
2022/12/01 07:58:43;;;;;;;68.75;23.65;;;;;;;10.14;100.00;102682.50;5012497;28;20039;-56
2022/12/01 08:01:11;;;;;;;61.57;22.83;;;;;;;10.17;100.00;102689.41;4992628;28;20042;-57
2022/12/01 08:03:37;;;;;;;68.03;24.35;;;;;;;10.49;100.00;102688.16;4983988;28;20045;-56
2022/12/01 08:06:04;;;;;;;57.17;23.42;;;;;;;10.59;100.00;102696.13;4991497;28;20058;-57
2022/12/01 08:08:32;;;;;;;64.53;24.00;;;;;;;10.73;100.00;102703.66;4990376;28;20045;-57
2022/12/01 08:11:00;;;;;;;62.33;21.63;;;;;;;10.81;100.00;102710.94;4988848;28;20031;-58
2022/12/01 08:13:26;;;;;;;63.85;23.52;;;;;;;10.85;100.00;102712.31;4986882;28;20042;-56
2022/12/01 08:15:52;;;;;;;59.50;20.95;;;;;;;10.68;100.00;102708.63;4989947;28;20039;-52
2022/12/01 08:18:17;;;;;;;54.93;21.57;;;;;;;10.72;100.00;102710.00;4989165;28;20046;-56
2022/12/01 08:20:43;;;;;;;63.60;23.43;;;;;;;10.90;100.00;102712.69;4993757;28;20033;-57
2022/12/01 08:23:09;;;;;;;54.30;20.90;;;;;;;11.08;100.00;102705.69;4989644;28;20289;-55
2022/12/01 08:25:35;;;;;;;54.85;22.10;;;;;;;11.04;100.00;102711.31;4989317;28;20098;-57
2022/12/01 08:28:00;;;;;;;54.70;21.50;;;;;;;11.16;100.00;102709.25;5001244;28;20126;-57
2022/12/01 08:30:27;;;;;;;56.17;23.00;;;;;;;10.98;100.00;102713.78;4990340;28;20058;-59
2022/12/01 08:32:53;;;;;;;65.53;24.17;;;;;;;11.03;100.00;102720.34;4991224;28;20023;-57
2022/12/01 08:35:19;;;;;;;62.55;22.88;;;;;;;11.15;100.00;102715.59;4991102;28;20066;-56
2022/12/01 08:37:44;;;;;;;61.93;22.83;;;;;;;11.22;100.00;102718.50;4990067;28;20043;-54
2022/12/01 08:40:10;;;;;;;51.85;20.65;;;;;;;10.93;100.00;102726.75;4989862;28;20117;-57
2022/12/01 08:42:37;;;;;;;58.65;23.55;;;;;;;11.13;100.00;102724.81;4990868;28;20035;-56
2022/12/01 08:45:02;;;;;;;62.08;23.45;;;;;;;10.99;100.00;102731.53;4989523;28;20050;-57
2022/12/01 08:47:28;;;;;;;69.45;25.00;;;;;;;11.11;100.00;102732.16;4993237;28;20054;-57
2022/12/01 08:49:53;;;;;;;59.38;22.42;;;;;;;11.09;100.00;102731.47;4993621;28;20042;-57
2022/12/01 08:52:19;;;;;;;64.60;24.57;;;;;;;11.30;100.00;102726.63;4989123;28;20055;-56
2022/12/01 08:54:45;;;;;;;75.70;24.87;;;;;;;11.19;100.00;102729.53;4989234;28;20032;-56
2022/12/01 08:57:11;;;;;;;65.25;23.10;;;;;;;11.22;100.00;102725.72;4988365;28;20281;-58
2022/12/01 08:59:37;;;;;;;78.65;25.50;;;;;;;11.35;100.00;102723.47;4992332;28;20041;-57
2022/12/01 09:02:02;;;;;;;71.38;23.77;;;;;;;11.43;100.00;102717.34;4987015;28;20027;-56
2022/12/01 09:04:28;;;;;;;72.73;25.47;;;;;;;11.38;100.00;102722.34;4987759;28;20054;-57
2022/12/01 09:06:55;;;;;;;63.63;24.40;;;;;;;11.55;100.00;102729.53;4983377;28;20027;-57
2022/12/01 09:09:30;;;;;;;68.03;24.70;;;;;;;11.56;100.00;102719.63;4988303;28;20035;-56
2022/12/01 09:11:55;;;;;;;68.03;25.85;;;;;;;11.51;100.00;102722.78;4988160;28;20273;-58
2022/12/01 09:14:22;;;;;;;65.20;25.83;;;;;;;11.52;100.00;102721.78;4988147;28;20046;-57
2022/12/01 09:16:49;;;;;;;67.38;26.08;;;;;;;11.57;100.00;102727.53;4981670;28;20026;-58
2022/12/01 09:19:16;;;;;;;63.33;25.45;;;;;;;11.70;100.00;102720.91;4986818;28;20034;-56
2022/12/01 09:21:44;;;;;;;66.90;25.70;;;;;;;11.55;100.00;102734.88;4989511;28;20027;-58
2022/12/01 09:24:11;;;;;;;72.13;24.47;;;;;;;11.52;100.00;102729.81;4985439;28;20264;-54
2022/12/01 09:26:37;;;;;;;74.38;26.05;;;;;;;11.41;100.00;102732.75;4984505;28;20300;-58
2022/12/01 09:29:09;;;;;;;74.53;27.53;;;;;;;11.47;100.00;102732.13;4983638;28;20047;-54
2022/12/01 09:31:36;;;;;;;78.10;26.67;;;;;;;11.55;100.00;102723.31;4991694;28;20031;-56
2022/12/01 09:34:04;;;;;;;64.32;25.75;;;;;;;11.61;100.00;102725.34;4990082;28;20345;-52
2022/12/01 09:36:31;;;;;;;69.00;26.43;;;;;;;11.62;100.00;102721.69;4984550;28;20041;-54
2022/12/01 09:38:57;;;;;;;70.40;26.77;;;;;;;11.57;100.00;102729.34;4990155;28;20298;-53
2022/12/01 09:41:29;;;;;;;73.70;26.23;;;;;;;11.56;100.00;102728.53;4988368;28;20340;-54
2022/12/01 09:44:01;;;;;;;75.83;28.67;;;;;;;11.56;100.00;102725.84;5007196;28;20039;-53
2022/12/01 09:46:35;;;;;;;73.30;25.27;;;;;;;11.80;100.00;102732.38;4984489;28;20299;-55
2022/12/01 09:49:03;;;;;;;71.20;26.63;;;;;;;11.76;100.00;102729.16;4986060;28;20273;-55
2022/12/01 09:51:33;;;;;;;77.03;26.97;;;;;;;11.90;100.00;102717.03;4986030;28;20288;-55
2022/12/01 09:54:00;;;;;;;77.53;26.90;;;;;;;12.01;100.00;102718.63;4985034;28;20261;-58
2022/12/01 09:56:29;;;;;;;72.90;26.70;;;;;;;11.99;100.00;102709.88;4989835;28;20274;-53
2022/12/01 09:59:06;;;;;;;69.73;27.13;;;;;;;12.14;100.00;102720.88;4989625;28;20276;-55
2022/12/01 10:01:36;;;;;;;77.13;27.67;;;;;;;12.26;100.00;102715.25;4987200;28;20289;-54
2022/12/01 10:04:16;;;;;;;78.70;29.57;;;;;;;12.26;100.00;102709.88;4987958;28;20264;-55
2022/12/01 10:06:47;;;;;;;74.03;30.20;;;;;;;12.33;100.00;102710.91;4987664;28;20320;-55
2022/12/01 10:09:17;;;;;;;73.60;28.23;;;;;;;12.12;100.00;102698.75;4987831;28;20272;-60
2022/12/01 10:11:46;;;;;;;79.53;29.27;;;;;;;11.96;100.00;102695.94;4988967;28;20280;-57
2022/12/01 10:14:16;;;;;;;71.47;27.27;;;;;;;12.02;100.00;102692.66;4988401;28;20276;-55
2022/12/01 10:16:59;;;;;;;76.83;28.10;;;;;;;13.34;100.00;102692.97;4988998;28;20329;-56
2022/12/01 10:19:50;;;;;;;71.83;28.50;;;;;;;15.31;100.00;102704.97;4989671;28;20295;-56
2022/12/01 10:22:25;;;;;;;62.50;23.97;;;;;;;17.08;100.00;102692.78;4988616;28;20281;-57
2022/12/01 10:25:13;;;;;;;69.57;26.53;;;;;;;18.24;99.43;102698.81;4985293;28;20279;-58
2022/12/01 10:27:47;;;;;;;64.27;26.10;;;;;;;19.09;92.03;102709.28;4988052;28;20276;-60
2022/12/01 10:30:18;;;;;;;70.57;27.00;;;;;;;19.41;85.57;102708.66;4989489;28;20289;-58
2022/12/01 10:32:52;;;;;;;57.77;25.37;;;;;;;19.83;78.43;102703.78;4997997;28;20031;-58
2022/12/01 10:35:21;;;;;;;58.93;26.83;;;;;;;19.74;80.08;102700.47;4988113;28;20058;-58
2022/12/01 10:37:52;;;;;;;62.93;27.37;;;;;;;20.77;74.19;102710.72;4989539;28;20037;-59
2022/12/01 10:40:18;;;;;;;56.07;25.20;;;;;;;20.62;72.71;102703.69;4988074;28;20115;-58
2022/12/01 10:42:45;;;;;;;;;;;;;;;21.00;70.09;102707.47;4985472;28;20030;-59
2022/12/01 10:45:22;;;;;;;55.75;24.58;;;;;;;21.04;69.81;102705.13;4988145;28;19915;-60
2022/12/01 10:48:08;;;;;;;54.97;24.80;;;;;;;21.92;65.76;102708.75;4987869;28;20043;-60
2022/12/01 10:50:34;;;;;;;56.72;25.98;;;;;;;22.35;63.15;102709.69;5005226;28;20070;-60
2022/12/01 10:53:00;;;;;;;;;;;;;;;22.56;61.00;102710.31;4988090;28;20031;-59
2022/12/01 10:55:32;;;;;;;56.23;26.57;;;;;;;22.52;59.50;102720.00;4989944;28;19922;-59
2022/12/01 10:58:01;;;;;;;56.27;24.87;;;;;;;22.43;59.24;102719.47;4989129;28;20425;-59
2022/12/01 11:00:33;;;;;;;51.40;25.10;;;;;;;22.86;58.33;102716.81;4986778;28;20045;-60
2022/12/01 11:02:59;;;;;;;48.30;24.30;;;;;;;23.22;56.45;102714.97;4987928;28;20039;-59
2022/12/01 11:05:31;;;;;;;;;;;;;;;22.79;56.85;102714.16;4987296;28;20031;-60
2022/12/01 11:07:57;;;;;;;54.60;25.10;;;;;;;23.32;54.72;102719.88;4986571;28;19997;-60
2022/12/01 11:10:28;;;;;;;43.10;22.37;;;;;;;22.90;57.71;102718.00;4989128;28;20077;-59
2022/12/01 11:13:00;;;;;;;55.10;26.47;;;;;;;22.79;55.52;102708.72;4987261;28;20026;-60
2022/12/01 11:15:29;;;;;;;48.03;24.03;;;;;;;22.97;55.31;102713.25;4985513;28;20217;-61
2022/12/01 11:18:04;;;;;;;50.17;24.43;;;;;;;22.35;54.26;102711.59;4987079;28;20031;-60